^^
Saratoga-Weather Station Historical Data
Daily Summary for August 3, 2021 Units:  English    Metric   Both
Daily Weekly Monthly Yearly Custom
  High: Low: Average:
Temperature: 78.3 °F 56.3 °F 68 °F
Dew Point: 64.9 °F 54.9 °F 59.2 °F
Humidity: 96% 52% 75%
Wind Speed: 4mph 0mph 0.9mph
Wind Gust: 8mph - -
Wind- - SSW
Pressure: 30 in 29.9 in -
Precipitation: 0 in    
Historical Graphs
 
 
Tabular Data for August 3, 2021
Time Temperature Dew Point Pressure Wind Wind Speed Wind Gust Humidity Rainfall Rate (Hourly) solar
00:00 61.7 °F 56.5 °F 30 in Calm     83% 0 in 0 W/m2
00:05 61.5 °F 56.7 °F 30 in Calm     84% 0 in 0 W/m2
00:10 61.5 °F 56.7 °F 30 in Calm     84% 0 in 0 W/m2
00:15 61.3 °F 56.8 °F 30 in Calm     85% 0 in 0 W/m2
00:20 61.3 °F 56.8 °F 30 in Calm     85% 0 in 0 W/m2
00:25 61.2 °F 56.7 °F 30 in Calm     85% 0 in 0 W/m2
00:30 61.2 °F 57 °F 30 in Calm     86% 0 in 0 W/m2
00:35 61 °F 56.8 °F 30 in Calm     86% 0 in 0 W/m2
00:41 61 °F 56.8 °F 30 in Calm     86% 0 in 0 W/m2
00:46 60.8 °F 56.7 °F 30 in Calm     86% 0 in 0 W/m2
00:51 60.6 °F 56.7 °F 30 in Calm     87% 0 in 0 W/m2
00:56 60.4 °F 56.5 °F 30 in Calm     87% 0 in 0 W/m2
01:01 60.4 °F 56.5 °F 30 in Calm     87% 0 in 0 W/m2
01:06 60.3 °F 56.3 °F 30 in Calm     87% 0 in 0 W/m2
01:11 60.1 °F 56.5 °F 30 in Calm     88% 0 in 0 W/m2
01:16 59.9 °F 56.3 °F 30 in Calm     88% 0 in 0 W/m2
01:21 59.7 °F 56.1 °F 30 in Calm     88% 0 in 0 W/m2
01:26 59.5 °F 56.3 °F 30 in Calm     89% 0 in 0 W/m2
01:31 59.5 °F 56.3 °F 30 in Calm     89% 0 in 0 W/m2
01:36 59.5 °F 56.3 °F 30 in Calm     89% 0 in 0 W/m2
01:41 59.4 °F 56.1 °F 30 in Calm     89% 0 in 0 W/m2
01:46 59.4 °F 56.5 °F 30 in Calm     90% 0 in 0 W/m2
01:51 59.2 °F 56.3 °F 30 in Calm     90% 0 in 0 W/m2
01:56 59 °F 56.1 °F 30 in Calm     90% 0 in 0 W/m2
02:01 58.8 °F 55.9 °F 30 in Calm     90% 0 in 0 W/m2
02:06 58.6 °F 55.8 °F 30 in Calm     90% 0 in 0 W/m2
02:11 58.6 °F 55.9 °F 30 in Calm     91% 0 in 0 W/m2
02:16 58.5 °F 55.8 °F 30 in Calm     91% 0 in 0 W/m2
02:21 58.5 °F 55.8 °F 30 in Calm     91% 0 in 0 W/m2
02:26 58.5 °F 55.8 °F 30 in Calm     91% 0 in 0 W/m2
02:31 58.3 °F 55.9 °F 30 in Calm     92% 0 in 0 W/m2
02:36 58.3 °F 55.9 °F 30 in Calm     92% 0 in 0 W/m2
02:41 58.3 °F 55.9 °F 30 in Calm     92% 0 in 0 W/m2
02:46 58.1 °F 55.8 °F 30 in Calm     92% 0 in 0 W/m2
02:51 57.9 °F 55.6 °F 30 in Calm     92% 0 in 0 W/m2
02:56 57.9 °F 55.6 °F 30 in Calm     92% 0 in 0 W/m2
03:01 57.7 °F 55.4 °F 30 in Calm     92% 0 in 0 W/m2
03:06 57.7 °F 55.4 °F 30 in Calm     92% 0 in 0 W/m2
03:11 57.7 °F 55.8 °F 30 in Calm     93% 0 in 0 W/m2
03:16 57.6 °F 55.6 °F 30 in Calm     93% 0 in 0 W/m2
03:22 57.6 °F 55.6 °F 30 in Calm     93% 0 in 0 W/m2
03:27 57.6 °F 55.6 °F 30 in Calm     93% 0 in 0 W/m2
03:32 57.6 °F 55.6 °F 30 in Calm     93% 0 in 0 W/m2
03:37 57.4 °F 55.4 °F 30 in Calm     93% 0 in 0 W/m2
03:42 57.4 °F 55.4 °F 30 in Calm     93% 0 in 0 W/m2
03:47 57.2 °F 55.2 °F 30 in Calm     93% 0 in 0 W/m2
03:52 57 °F 55 °F 30 in Calm     93% 0 in 0 W/m2
03:57 57 °F 55 °F 30 in Calm     93% 0 in 0 W/m2
04:02 56.8 °F 54.9 °F 30 in Calm     93% 0 in 0 W/m2
04:07 56.8 °F 54.9 °F 30 in Calm     93% 0 in 0 W/m2
04:12 56.8 °F 55.2 °F 30 in Calm     94% 0 in 0 W/m2
04:17 56.8 °F 55.2 °F 30 in Calm     94% 0 in 0 W/m2
04:22 56.8 °F 55.2 °F 30 in Calm     94% 0 in 0 W/m2
04:27 56.7 °F 55 °F 30 in Calm     94% 0 in 0 W/m2
04:32 56.7 °F 55 °F 30 in Calm     94% 0 in 0 W/m2
04:37 56.7 °F 55 °F 30 in Calm     94% 0 in 0 W/m2
04:42 56.7 °F 55 °F 30 in Calm     94% 0 in 0 W/m2
04:47 56.7 °F 55 °F 30 in Calm     94% 0 in 0 W/m2
04:52 56.7 °F 55 °F 30 in Calm     94% 0 in 0 W/m2
04:57 56.5 °F 54.9 °F 30 in Calm     94% 0 in 0 W/m2
05:02 56.5 °F 54.9 °F 30 in Calm     94% 0 in 0 W/m2
05:07 56.5 °F 55 °F 30 in Calm     95% 0 in 0 W/m2
05:12 56.7 °F 55.2 °F 30 in Calm     95% 0 in 0 W/m2
05:17 56.5 °F 55 °F 30 in Calm     95% 0 in 0 W/m2
05:22 56.5 °F 55 °F 30 in Calm     95% 0 in 0 W/m2
05:27 56.3 °F 54.9 °F 30 in Calm     95% 0 in 5 W/m2
05:32 56.3 °F 54.9 °F 30 in Calm     95% 0 in 5 W/m2
05:37 56.3 °F 54.9 °F 30 in Calm     95% 0 in 7 W/m2
05:42 56.3 °F 54.9 °F 30 in Calm     95% 0 in 11 W/m2
05:47 56.5 °F 55 °F 30 in Calm     95% 0 in 14 W/m2
05:52 56.5 °F 55 °F 30 in Calm     95% 0 in 16 W/m2
05:57 56.5 °F 55 °F 30 in Calm     95% 0 in 21 W/m2
06:02 56.7 °F 55.2 °F 30 in Calm     95% 0 in 26 W/m2
06:07 56.7 °F 55.2 °F 30 in Calm     95% 0 in 26 W/m2
06:12 56.7 °F 55.2 °F 30 in Calm     95% 0 in 30 W/m2
06:17 56.7 °F 55.2 °F 30 in Calm     95% 0 in 32 W/m2
06:22 56.7 °F 55.2 °F 30 in Calm     95% 0 in 35 W/m2
06:27 56.7 °F 55.2 °F 30 in Calm     95% 0 in 35 W/m2
06:32 56.8 °F 55.4 °F 30 in Calm     95% 0 in 40 W/m2
06:37 56.8 °F 55.4 °F 30 in Calm     95% 0 in 42 W/m2
06:42 56.8 °F 55.4 °F 30 in Calm     95% 0 in 37 W/m2
06:47 57 °F 55.6 °F 30 in Calm     95% 0 in 37 W/m2
06:52 57.2 °F 56.1 °F 30 in WSW 0.9 mph 2 mph 96% 0 in 32 W/m2
06:57 57.2 °F 56.1 °F 30 in Calm   1 mph 96% 0 in 32 W/m2
07:02 57.4 °F 56.3 °F 30 in Calm   2 mph 96% 0 in 32 W/m2
07:07 57.4 °F 55.9 °F 30 in Calm     95% 0 in 46 W/m2
07:12 57.6 °F 56.1 °F 30 in Calm   1 mph 95% 0 in 60 W/m2
07:17 57.7 °F 56.7 °F 30 in Calm   1 mph 96% 0 in 81 W/m2
07:22 58.1 °F 57 °F 30 in Calm   1 mph 96% 0 in 95 W/m2
07:27 58.5 °F 57.4 °F 30 in NE 0.9 mph 2 mph 96% 0 in 102 W/m2
07:32 58.6 °F 57.2 °F 30 in ENE 0.9 mph 2 mph 95% 0 in 111 W/m2
07:37 59.2 °F 57.7 °F 30 in ENE 2 mph 3 mph 95% 0 in 109 W/m2
07:42 59.4 °F 57.6 °F 30 in NE 2 mph 3 mph 94% 0 in 109 W/m2
07:47 59.7 °F 57.9 °F 30 in ENE 0.9 mph 2 mph 94% 0 in 125 W/m2
07:52 60.1 °F 58.1 °F 30 in NE 0.9 mph 4 mph 93% 0 in 137 W/m2
07:57 60.3 °F 57.9 °F 30 in Calm   1 mph 92% 0 in 116 W/m2
08:02 60.4 °F 58.1 °F 30 in Calm   4 mph 92% 0 in 123 W/m2
08:07 60.8 °F 58.1 °F 30 in Calm   2 mph 91% 0 in 218 W/m2
08:12 61 °F 58.1 °F 30 in Calm   1 mph 90% 0 in 174 W/m2
08:17 61.3 °F 58.5 °F 30 in NE 2 mph 2 mph 90% 0 in 125 W/m2
08:22 62.1 °F 58.8 °F 30 in NE 0.9 mph 3 mph 89% 0 in 100 W/m2
08:27 62.6 °F 59 °F 30 in East 0.9 mph 3 mph 88% 0 in 107 W/m2
08:32 63.3 °F 59 °F 30 in NE 2 mph 2 mph 86% 0 in 107 W/m2
08:37 64 °F 59.4 °F 30 in East 2 mph 3 mph 85% 0 in 111 W/m2
08:42 64.8 °F 59.5 °F 30 in ENE 0.9 mph 2 mph 83% 0 in 107 W/m2
08:47 64.9 °F 59.4 °F 30 in ENE 0.9 mph 2 mph 82% 0 in 109 W/m2
08:52 65.1 °F 59.5 °F 30 in ENE 0.9 mph 2 mph 82% 0 in 107 W/m2
08:57 65.5 °F 60.3 °F 30 in East 0.9 mph 2 mph 83% 0 in 113 W/m2
09:02 65.8 °F 59.9 °F 30 in Calm   2 mph 81% 0 in 114 W/m2
09:07 66 °F 60.1 °F 30 in ENE 0.9 mph 3 mph 81% 0 in 109 W/m2
09:12 66.2 °F 59.9 °F 30 in East 2.9 mph 4 mph 80% 0 in 146 W/m2
09:17 66.4 °F 59.7 °F 30 in NE 0.9 mph 2 mph 79% 0 in 269 W/m2
09:22 66.7 °F 60.1 °F 30 in NE 2 mph 3 mph 79% 0 in 459 W/m2
09:27 66.9 °F 60.3 °F 30 in ENE 2 mph 4 mph 79% 0 in 473 W/m2
09:32 67.3 °F 59.9 °F 30 in NE 2.9 mph 5 mph 77% 0 in 499 W/m2
09:37 67.6 °F 60.3 °F 30 in ENE 2 mph 3 mph 77% 0 in 512 W/m2
09:42 67.6 °F 59.7 °F 30 in NE 2 mph 5 mph 76% 0 in 538 W/m2
09:47 68 °F 60.1 °F 30 in Calm   3 mph 76% 0 in 552 W/m2
09:52 68.5 °F 61 °F 30 in ESE 2 mph 3 mph 77% 0 in 510 W/m2
09:57 69.1 °F 60.8 °F 30 in East 0.9 mph 3 mph 75% 0 in 524 W/m2
10:02 69.3 °F 60.6 °F 30 in Calm   1 mph 74% 0 in 577 W/m2
10:07 70 °F 61.3 °F 30 in Calm   3 mph 74% 0 in 584 W/m2
10:12 70.3 °F 60.8 °F 30 in ENE 2 mph 3 mph 72% 0 in 95 W/m2
10:17 70.9 °F 61.3 °F 30 in Calm   3 mph 72% 0 in 162 W/m2
10:22 71.2 °F 60.6 °F 30 in ESE 2.9 mph 4 mph 69% 0 in 635 W/m2
10:27 71.4 °F 61.2 °F 30 in ENE 0.9 mph 4 mph 70% 0 in 652 W/m2
10:32 71.6 °F 60.8 °F 30 in NE 0.9 mph 3 mph 69% 0 in 671 W/m2
10:37 72 °F 60.8 °F 30 in East 2.9 mph 8 mph 68% 0 in 647 W/m2
10:42 72.1 °F 61.3 °F 30 in ENE 2 mph 3 mph 69% 0 in 647 W/m2
10:47 72.1 °F 60.6 °F 30 in Calm   6 mph 67% 0 in 624 W/m2
10:52 72.5 °F 61.3 °F 30 in Calm   3 mph 68% 0 in 633 W/m2
10:57 72.9 °F 60.4 °F 30 in NE 2.9 mph 6 mph 65% 0 in 659 W/m2
11:02 73.2 °F 61.2 °F 30 in East 2.9 mph 4 mph 66% 0 in 735 W/m2
11:07 73.6 °F 61.2 °F 30 in Calm   6 mph 65% 0 in 571 W/m2
11:12 73.9 °F 60.6 °F 30 in ESE 2.9 mph 6 mph 63% 0 in 443 W/m2
11:17 74.1 °F 61.2 °F 30 in Calm   4 mph 64% 0 in 483 W/m2
11:22 74.1 °F 60.8 °F 30 in East 0.9 mph 3 mph 63% 0 in 445 W/m2
11:27 74.5 °F 61.5 °F 30 in North 0.9 mph 2 mph 64% 0 in 536 W/m2
11:32 74.7 °F 61.2 °F 30 in Calm   2 mph 63% 0 in 455 W/m2
11:37 75 °F 61.5 °F 30 in ESE 0.9 mph 3 mph 63% 0 in 663 W/m2
11:42 75.7 °F 61.9 °F 30 in East 4 mph 4 mph 62% 0 in 580 W/m2
11:47 75.7 °F 60.4 °F 30 in SSW 0.9 mph 3 mph 59% 0 in 519 W/m2
11:52 75.6 °F 60.3 °F 30 in East 0.9 mph 1 mph 59% 0 in 573 W/m2
11:57 75.4 °F 60.4 °F 30 in SE 0.9 mph 6 mph 60% 0 in 522 W/m2
12:02 75.2 °F 60.4 °F 30 in Calm   2 mph 60% 0 in 517 W/m2
12:07 75.4 °F 60.4 °F 30 in NW 0.9 mph 1 mph 60% 0 in 615 W/m2
12:12 75.6 °F 61.2 °F 30 in ENE 0.9 mph 3 mph 61% 0 in 663 W/m2
12:17 75.9 °F 60.1 °F 30 in NNE 0.9 mph 2 mph 58% 0 in 587 W/m2
12:22 76.3 °F 60.4 °F 30 in Calm   2 mph 58% 0 in 487 W/m2
12:27 76.3 °F 59.9 °F 30 in East 2 mph 6 mph 57% 0 in 429 W/m2
12:32 75.9 °F 59.5 °F 30 in NW 2 mph 2 mph 57% 0 in 383 W/m2
12:37 75.7 °F 58.5 °F 29.9 in NW 0.9 mph 6 mph 55% 0 in 329 W/m2
12:42 75.7 °F 59 °F 29.9 in Calm   2 mph 56% 0 in 318 W/m2
12:47 75.7 °F 57.9 °F 29.9 in Calm   2 mph 54% 0 in 320 W/m2
12:52 75.7 °F 59.4 °F 29.9 in WSW 0.9 mph 4 mph 57% 0 in 316 W/m2
12:57 75.7 °F 59.4 °F 29.9 in WNW 2 mph 2 mph 57% 0 in 292 W/m2
13:02 75.7 °F 59.4 °F 29.9 in WNW 0.9 mph 4 mph 57% 0 in 265 W/m2
13:07 75.7 °F 60.4 °F 29.9 in Calm   2 mph 59% 0 in 244 W/m2
13:12 75.9 °F 60.6 °F 29.9 in Calm   1 mph 59% 0 in 227 W/m2
13:17 75.9 °F 61.5 °F 29.9 in Calm   2 mph 61% 0 in 216 W/m2
13:22 75.9 °F 60.6 °F 29.9 in ESE 0.9 mph 3 mph 59% 0 in 209 W/m2
13:27 75.7 °F 62.2 °F 29.9 in Calm     63% 0 in 211 W/m2
13:32 75.7 °F 60.4 °F 29.9 in Calm     59% 0 in 214 W/m2
13:37 75.7 °F 63.5 °F 29.9 in Calm     66% 0 in 225 W/m2
13:43 75.9 °F 63.7 °F 29.9 in Calm     66% 0 in 251 W/m2
13:48 75.9 °F 60.6 °F 29.9 in Calm   1 mph 59% 0 in 265 W/m2
13:53 75.9 °F 61 °F 29.9 in SW 0.9 mph 1 mph 60% 0 in 276 W/m2
13:58 75.7 °F 59.9 °F 29.9 in Calm     58% 0 in 287 W/m2
14:03 75.9 °F 60.6 °F 29.9 in Calm   2 mph 59% 0 in 295 W/m2
14:08 75.7 °F 60.4 °F 29.9 in Calm   2 mph 59% 0 in 292 W/m2
14:13 75.7 °F 61.9 °F 29.9 in Calm   1 mph 62% 0 in 285 W/m2
14:18 75.9 °F 60.6 °F 29.9 in Calm   1 mph 59% 0 in 288 W/m2
14:23 75.9 °F 61 °F 29.9 in West 0.9 mph 2 mph 60% 0 in 294 W/m2
14:28 75.9 °F 62.4 °F 29.9 in West 2 mph 2 mph 63% 0 in 278 W/m2
14:33 75.7 °F 60.4 °F 29.9 in WNW 0.9 mph 3 mph 59% 0 in 271 W/m2
14:38 75.7 °F 61.3 °F 29.9 in Calm   2 mph 61% 0 in 279 W/m2
14:43 75.6 °F 60.3 °F 29.9 in NW 2 mph 4 mph 59% 0 in 301 W/m2
14:48 75.4 °F 61 °F 29.9 in WNW 0.9 mph 4 mph 61% 0 in 325 W/m2
14:53 75.4 °F 60.4 °F 29.9 in WSW 2.9 mph 4 mph 60% 0 in 346 W/m2
14:58 75.4 °F 61.5 °F 29.9 in West 0.9 mph 2 mph 62% 0 in 411 W/m2
15:03 75.4 °F 60.4 °F 29.9 in WSW 0.9 mph 3 mph 60% 0 in 422 W/m2
15:08 75.6 °F 60.6 °F 29.9 in West 2.9 mph 5 mph 60% 0 in 422 W/m2
15:13 75.7 °F 60.4 °F 29.9 in West 2.9 mph 4 mph 59% 0 in 431 W/m2
15:18 75.9 °F 61.5 °F 29.9 in West 2 mph 2 mph 61% 0 in 439 W/m2
15:23 76.1 °F 60.3 °F 29.9 in NW 2 mph 3 mph 58% 0 in 461 W/m2
15:28 76.5 °F 60.1 °F 29.9 in West 2 mph 4 mph 57% 0 in 466 W/m2
15:33 76.6 °F 59.2 °F 29.9 in West 2 mph 4 mph 55% 0 in 497 W/m2
15:38 76.8 °F 59.4 °F 29.9 in NW 2.9 mph 3 mph 55% 0 in 482 W/m2
15:43 77.2 °F 60.3 °F 29.9 in NW 2.9 mph 6 mph 56% 0 in 432 W/m2
15:48 76.8 °F 59 °F 29.9 in WSW 0.9 mph 3 mph 54% 0 in 408 W/m2
15:53 76.8 °F 57.9 °F 29.9 in WSW 0.9 mph 6 mph 52% 0 in 418 W/m2
15:58 77 °F 58.6 °F 29.9 in West 2 mph 4 mph 53% 0 in 429 W/m2
16:03 77.2 °F 58.3 °F 29.9 in West 0.9 mph 1 mph 52% 0 in 466 W/m2
16:08 77.5 °F 60.1 °F 29.9 in West 2 mph 3 mph 55% 0 in 489 W/m2
16:13 77.7 °F 60.3 °F 29.9 in WNW 2.9 mph 3 mph 55% 0 in 545 W/m2
16:18 77.7 °F 61.3 °F 29.9 in WSW 2 mph 7 mph 57% 0 in 512 W/m2
16:23 77.7 °F 59.7 °F 29.9 in WNW 2 mph 4 mph 54% 0 in 459 W/m2
16:28 77.5 °F 59.5 °F 29.9 in West 0.9 mph 3 mph 54% 0 in 383 W/m2
16:33 77.7 °F 60.3 °F 29.9 in West 2.9 mph 4 mph 55% 0 in 729 W/m2
16:38 77.9 °F 59.4 °F 29.9 in WSW 2 mph 4 mph 53% 0 in 452 W/m2
16:43 77.7 °F 58.6 °F 29.9 in Calm   6 mph 52% 0 in 478 W/m2
16:48 77.9 °F 59.9 °F 29.9 in SSW 0.9 mph 2 mph 54% 0 in 381 W/m2
16:53 77.9 °F 58.8 °F 29.9 in NW 2.9 mph 4 mph 52% 0 in 381 W/m2
16:58 77.7 °F 59.2 °F 29.9 in WNW 2.9 mph 6 mph 53% 0 in 388 W/m2
17:03 77.5 °F 59.5 °F 29.9 in NW 0.9 mph 3 mph 54% 0 in 364 W/m2
17:08 77.5 °F 59 °F 29.9 in Calm   1 mph 53% 0 in 348 W/m2
17:13 77.7 °F 60.3 °F 29.9 in Calm   2 mph 55% 0 in 350 W/m2
17:18 77.9 °F 59.4 °F 29.9 in WSW 0.9 mph 3 mph 53% 0 in 315 W/m2
17:23 77.7 °F 59.2 °F 29.9 in WSW 2 mph 3 mph 53% 0 in 403 W/m2
17:28 77.7 °F 59.2 °F 29.9 in West 0.9 mph 2 mph 53% 0 in 287 W/m2
17:33 77.7 °F 59.7 °F 29.9 in Calm   3 mph 54% 0 in 260 W/m2
17:38 78.1 °F 60.6 °F 29.9 in Calm   1 mph 55% 0 in 236 W/m2
17:43 78.1 °F 60.6 °F 29.9 in West 0.9 mph 2 mph 55% 0 in 223 W/m2
17:48 78.3 °F 61.7 °F 29.9 in Calm   1 mph 57% 0 in 218 W/m2
17:53 78.1 °F 62.6 °F 29.9 in Calm     59% 0 in 204 W/m2
17:58 78.1 °F 63.5 °F 29.9 in Calm     61% 0 in 197 W/m2
18:03 78.3 °F 63.7 °F 29.9 in Calm     61% 0 in 188 W/m2
18:08 78.3 °F 63.7 °F 29.9 in Calm     61% 0 in 178 W/m2
18:13 78.3 °F 64.2 °F 29.9 in Calm     62% 0 in 165 W/m2
18:18 78.1 °F 64.9 °F 29.9 in Calm     64% 0 in 153 W/m2
18:23 77.7 °F 64 °F 29.9 in Calm     63% 0 in 135 W/m2
18:28 77.5 °F 64.4 °F 29.9 in Calm     64% 0 in 118 W/m2
18:33 77.2 °F 64.6 °F 29.9 in Calm     65% 0 in 105 W/m2
18:38 76.8 °F 64.2 °F 29.9 in Calm     65% 0 in 100 W/m2
18:43 76.5 °F 64.2 °F 29.9 in Calm     66% 0 in 97 W/m2
18:48 75.9 °F 64.2 °F 29.9 in Calm     67% 0 in 104 W/m2
18:53 75.7 °F 63.5 °F 29.9 in Calm     66% 0 in 98 W/m2
18:58 75.4 °F 62.8 °F 29.9 in Calm     65% 0 in 70 W/m2
19:03 74.8 °F 63.1 °F 29.9 in West 0.9 mph 2 mph 67% 0 in 54 W/m2
19:08 74.7 °F 63 °F 29.9 in Calm   2 mph 67% 0 in 76 W/m2
19:13 74.5 °F 62.8 °F 29.9 in Calm   1 mph 67% 0 in 100 W/m2
19:18 74.3 °F 63.1 °F 29.9 in Calm   2 mph 68% 0 in 100 W/m2
19:23 73.9 °F 61.9 °F 29.9 in West 2.9 mph 3 mph 66% 0 in 93 W/m2
19:28 73.9 °F 61.9 °F 29.9 in West 2.9 mph 4 mph 66% 0 in 84 W/m2
19:33 73.9 °F 61.9 °F 29.9 in West 2 mph 7 mph 66% 0 in 79 W/m2
19:38 73.8 °F 61.7 °F 29.9 in West 0.9 mph 4 mph 66% 0 in 81 W/m2
19:43 73.6 °F 61.5 °F 29.9 in West 2.9 mph 6 mph 66% 0 in 83 W/m2
19:48 73.6 °F 61.5 °F 29.9 in WNW 4 mph 5 mph 66% 0 in 79 W/m2
19:53 73.4 °F 61 °F 29.9 in WNW 4 mph 4 mph 65% 0 in 69 W/m2
19:58 73.2 °F 60.8 °F 29.9 in West 2 mph 5 mph 65% 0 in 51 W/m2
20:03 73 °F 61 °F 29.9 in WSW 4 mph 7 mph 66% 0 in 33 W/m2
20:08 72.9 °F 60.8 °F 29.9 in West 2 mph 6 mph 66% 0 in 23 W/m2
20:13 72.7 °F 61.2 °F 29.9 in West 2 mph 5 mph 67% 0 in 16 W/m2
20:18 72.5 °F 61 °F 29.9 in SW 2.9 mph 4 mph 67% 0 in 12 W/m2
20:23 72.3 °F 61.2 °F 29.9 in West 2 mph 3 mph 68% 0 in 11 W/m2
20:28 72.1 °F 61 °F 29.9 in WSW 2.9 mph 6 mph 68% 0 in 9 W/m2
20:33 72.1 °F 61 °F 29.9 in WNW 4 mph 5 mph 68% 0 in 9 W/m2
20:38 72 °F 60.8 °F 29.9 in WNW 2 mph 6 mph 68% 0 in 9 W/m2
20:43 71.8 °F 61 °F 29.9 in WSW 2 mph 3 mph 69% 0 in 9 W/m2
20:48 71.8 °F 61 °F 29.9 in WSW 2.9 mph 5 mph 69% 0 in 9 W/m2
20:53 71.4 °F 60.8 °F 29.9 in West 0.9 mph 4 mph 69% 0 in 9 W/m2
20:58 71.2 °F 61 °F 29.9 in WNW 2 mph 3 mph 70% 0 in 7 W/m2
21:03 71.1 °F 60.8 °F 29.9 in WNW 4 mph 6 mph 70% 0 in 5 W/m2
21:08 71.1 °F 60.8 °F 29.9 in West 2 mph 3 mph 70% 0 in 0 W/m2
21:13 70.9 °F 61 °F 29.9 in NW 0.9 mph 4 mph 71% 0 in 0 W/m2
21:18 70.9 °F 61 °F 29.9 in West 4 mph 4 mph 71% 0 in 0 W/m2
21:23 70.9 °F 61 °F 29.9 in West 2 mph 4 mph 71% 0 in 0 W/m2
21:28 70.7 °F 60.8 °F 29.9 in West 0.9 mph 3 mph 71% 0 in 0 W/m2
21:33 70.7 °F 61.2 °F 29.9 in West 2 mph 5 mph 72% 0 in 0 W/m2
21:38 70.7 °F 61.2 °F 29.9 in SW 0.9 mph 6 mph 72% 0 in 0 W/m2
21:44 70.5 °F 61 °F 29.9 in WNW 2 mph 3 mph 72% 0 in 0 W/m2
21:49 70.7 °F 61.7 °F 29.9 in Calm   6 mph 73% 0 in 0 W/m2
21:54 70.7 °F 61.7 °F 29.9 in WNW 2 mph 4 mph 73% 0 in 0 W/m2
21:59 70.5 °F 61.5 °F 29.9 in SW 2 mph 6 mph 73% 0 in 0 W/m2
22:04 70.5 °F 61.9 °F 29.9 in WSW 2.9 mph 6 mph 74% 0 in 0 W/m2
22:09 70.5 °F 61.9 °F 29.9 in WSW 4 mph 6 mph 74% 0 in 0 W/m2
22:14 70.5 °F 61.9 °F 29.9 in WSW 4 mph 7 mph 74% 0 in 0 W/m2
22:19 70.5 °F 62.2 °F 29.9 in West 2 mph 5 mph 75% 0 in 0 W/m2
22:24 70.3 °F 62.4 °F 29.9 in WNW 2.9 mph 4 mph 76% 0 in 0 W/m2
22:29 70.2 °F 62.2 °F 29.9 in West 2.9 mph 7 mph 76% 0 in 0 W/m2
22:34 70 °F 62.1 °F 29.9 in WNW 2.9 mph 4 mph 76% 0 in 0 W/m2
22:39 69.6 °F 62.1 °F 29.9 in WNW 2.9 mph 6 mph 77% 0 in 0 W/m2
22:44 69.4 °F 62.2 °F 29.9 in SW 2.9 mph 4 mph 78% 0 in 0 W/m2
22:49 69.4 °F 62.6 °F 29.9 in WSW 2 mph 3 mph 79% 0 in 0 W/m2
22:54 69.3 °F 62.4 °F 29.9 in West 2 mph 5 mph 79% 0 in 0 W/m2
22:59 69.1 °F 62.2 °F 29.9 in Calm   4 mph 79% 0 in 0 W/m2
23:04 68.9 °F 62.4 °F 29.9 in SW 2 mph 6 mph 80% 0 in 0 W/m2
23:09 68.7 °F 62.2 °F 29.9 in West 2 mph 3 mph 80% 0 in 0 W/m2
23:14 68.7 °F 62.2 °F 29.9 in WNW 4 mph 4 mph 80% 0 in 0 W/m2
23:19 68.7 °F 62.2 °F 29.9 in West 0.9 mph 3 mph 80% 0 in 0 W/m2
23:24 68.5 °F 62.1 °F 29.9 in West 2 mph 2 mph 80% 0 in 0 W/m2
23:29 68.4 °F 61.5 °F 29.9 in West 2 mph 3 mph 79% 0 in 0 W/m2
23:34 68.4 °F 61.5 °F 29.9 in West 2.9 mph 4 mph 79% 0 in 0 W/m2
23:39 68.2 °F 61.3 °F 29.9 in West 2 mph 4 mph 79% 0 in 0 W/m2
23:44 68.2 °F 61.3 °F 29.9 in West 2.9 mph 3 mph 79% 0 in 0 W/m2
23:49 68 °F 61.2 °F 29.9 in WSW 4 mph 4 mph 79% 0 in 0 W/m2
23:54 67.8 °F 61 °F 29.9 in West 0.9 mph 3 mph 79% 0 in 0 W/m2
23:59 67.8 °F 61 °F 29.9 in West 2.9 mph 5 mph 79% 0 in 0 W/m2
Juneau County Weather
Compliments of Weather Underground - 4 mb